Time;durP1;ratioP1;P1;durP2;ratioP2;P2;SDS_P1;SDS_P2;PMS_P1;PMS_P2;Temp;Humidity;BMP_temperature;BMP_pressure;BME280_temperature;BME280_humidity;BME280_pressure;Samples;Min_cycle;Max_cycle;Signal;HPM_P1;HPM_P2
2022/09/26 00:03:43;;;;;;;12.02;6.50;;;;;;;15.77;68.47;99133.25;7578926;33;37807;-77
2022/09/26 00:07:59;;;;;;;12.95;6.90;;;;;;;15.58;69.09;99124.47;7589829;32;37693;-78
2022/09/26 00:12:16;;;;;;;11.15;6.82;;;;;;;15.57;69.06;99122.84;7591926;32;39178;-78
2022/09/26 00:16:32;;;;;;;13.07;7.87;;;;;;;15.48;68.98;99122.03;7613035;32;40522;-77
2022/09/26 00:20:48;;;;;;;11.18;7.57;;;;;;;15.66;68.80;99114.59;7578476;32;38801;-78
2022/09/26 00:25:04;;;;;;;13.45;7.93;;;;;;;15.72;68.63;99111.38;7578525;33;37765;-77
2022/09/26 00:29:21;;;;;;;16.35;9.20;;;;;;;15.39;69.52;99103.59;7578169;32;39352;-77
2022/09/26 00:33:37;;;;;;;13.15;8.40;;;;;;;15.73;68.30;99113.00;7578153;33;40768;-77
2022/09/26 00:37:53;;;;;;;13.38;9.00;;;;;;;15.75;68.45;99091.53;7577927;33;38539;-77
2022/09/26 00:42:15;;;;;;;15.68;8.65;;;;;;;15.86;67.71;99088.47;7578190;32;37901;-77
2022/09/26 00:46:35;;;;;;;13.40;8.48;;;;;;;15.71;68.39;99090.56;7577709;32;39477;-78
2022/09/26 00:50:51;;;;;;;13.10;9.35;;;;;;;15.75;68.16;99080.53;7577804;33;39994;-76
2022/09/26 00:55:11;;;;;;;14.20;8.82;;;;;;;15.58;68.69;99086.00;7577769;33;37655;-78
2022/09/26 00:59:47;;;;;;;14.40;9.00;;;;;;;15.94;67.63;99084.91;7588417;32;37905;-77
2022/09/26 01:04:04;;;;;;;21.02;9.82;;;;;;;15.90;67.77;99061.94;7589962;32;40022;-78
2022/09/26 01:08:25;;;;;;;18.20;10.30;;;;;;;15.76;68.24;99065.69;7592094;32;40019;-77
2022/09/26 01:12:42;;;;;;;16.40;10.30;;;;;;;15.58;68.85;99053.03;7607248;32;37929;-77
2022/09/26 01:16:59;;;;;;;16.58;11.00;;;;;;;15.76;68.05;99048.37;7618229;32;37498;-77
2022/09/26 01:21:46;;;;;;;15.60;10.35;;;;;;;15.71;68.60;99051.25;7607267;32;39366;-78
2022/09/26 01:26:55;;;;;;;16.55;10.23;;;;;;;15.65;68.69;99052.56;7588174;32;39922;-77
2022/09/26 01:31:24;;;;;;;16.65;11.07;;;;;;;15.49;69.12;99046.75;7556037;32;37904;-77
2022/09/26 01:36:37;;;;;;;18.67;11.00;;;;;;;15.62;68.60;99042.22;7617361;32;37951;-78
2022/09/26 01:41:11;;;;;;;20.67;11.63;;;;;;;15.85;67.85;99040.94;7546158;32;39220;-77
2022/09/26 01:45:38;;;;;;;16.40;11.07;;;;;;;15.43;69.55;99037.03;7581600;32;39728;-77
2022/09/26 01:50:05;;;;;;;15.90;10.98;;;;;;;15.50;69.14;99034.63;7590927;32;38236;-78
2022/09/26 01:54:40;;;;;;;21.30;10.75;;;;;;;15.62;69.01;99026.53;7580844;33;37201;-77
2022/09/26 01:58:59;;;;;;;18.30;11.40;;;;;;;15.46;69.03;99008.94;7610757;32;40263;-77
2022/09/26 02:03:20;;;;;;;20.62;10.80;;;;;;;15.44;69.66;99001.00;7606575;32;40710;-78
2022/09/26 02:07:40;;;;;;;20.48;11.18;;;;;;;15.40;69.35;98995.37;7617304;32;38034;-78
2022/09/26 02:12:00;;;;;;;16.02;10.52;;;;;;;15.63;68.25;99000.69;7595922;32;38128;-77
2022/09/26 02:16:50;;;;;;;16.62;11.20;;;;;;;15.72;68.19;98992.44;7590284;32;40129;-78
2022/09/26 02:21:21;;;;;;;18.15;12.13;;;;;;;15.78;67.95;98982.94;7578826;32;39733;-78
2022/09/26 02:25:37;;;;;;;17.10;11.70;;;;;;;15.54;68.73;98991.66;7580459;33;37955;-78
2022/09/26 02:29:53;;;;;;;21.55;12.30;;;;;;;15.45;69.38;98979.84;7580362;33;37867;-78
2022/09/26 02:34:09;;;;;;;18.55;12.02;;;;;;;15.30;69.65;98987.44;7591438;32;40480;-78
2022/09/26 02:38:28;;;;;;;23.02;11.57;;;;;;;15.70;68.27;98979.00;7580175;33;39696;-78
2022/09/26 02:42:52;;;;;;;18.00;11.52;;;;;;;15.60;68.32;98979.34;7581298;32;37886;-77
2022/09/26 02:47:30;;;;;;;16.65;11.82;;;;;;;15.56;68.67;98972.91;7590751;32;37476;-77
2022/09/26 02:52:09;;;;;;;19.05;11.80;;;;;;;15.36;69.13;98982.59;7590724;32;39281;-77
2022/09/26 02:56:28;;;;;;;15.68;11.10;;;;;;;15.18;69.90;98977.09;7589504;32;41407;-78
2022/09/26 03:00:57;;;;;;;15.30;10.98;;;;;;;15.49;68.78;98965.16;7591013;32;37959;-78
2022/09/26 03:05:19;;;;;;;15.80;11.20;;;;;;;15.49;68.58;98962.41;7596744;32;37165;-78
2022/09/26 03:09:36;;;;;;;17.30;11.75;;;;;;;15.24;69.69;98977.75;7604752;32;40043;-78
2022/09/26 03:13:53;;;;;;;16.85;10.98;;;;;;;15.76;67.84;98965.94;7582305;32;39805;-77
2022/09/26 03:18:18;;;;;;;16.80;12.00;;;;;;;15.50;68.82;98972.25;7590658;32;37892;-78
2022/09/26 03:22:34;;;;;;;18.10;11.35;;;;;;;15.20;69.69;98983.06;7590127;32;37205;-77
2022/09/26 03:26:51;;;;;;;16.87;11.68;;;;;;;15.47;68.68;98977.56;7579367;33;40295;-78
2022/09/26 03:31:07;;;;;;;18.27;11.93;;;;;;;15.52;68.55;98985.66;7590370;32;39656;-77
2022/09/26 03:35:23;;;;;;;20.65;12.15;;;;;;;15.48;68.89;98977.25;7579306;32;38508;-77
2022/09/26 03:39:39;;;;;;;19.90;12.30;;;;;;;15.68;67.75;98969.50;7577833;33;37724;-77
2022/09/26 03:43:56;;;;;;;21.12;12.52;;;;;;;15.58;67.69;98959.63;7600448;32;39099;-78
2022/09/26 03:48:12;;;;;;;20.15;11.85;;;;;;;15.44;68.28;98946.09;7603278;32;41083;-78
2022/09/26 03:52:28;;;;;;;17.95;11.25;;;;;;;15.50;68.00;98941.22;7603086;32;38751;-78
2022/09/26 03:56:44;;;;;;;17.27;10.40;;;;;;;15.61;67.43;98925.19;7602904;32;37111;-77
2022/09/26 04:01:09;;;;;;;15.95;10.43;;;;;;;15.58;67.66;98921.19;7603058;32;39110;-78
2022/09/26 04:05:25;;;;;;;15.80;9.75;;;;;;;15.45;68.13;98919.41;7613877;32;40543;-78
2022/09/26 04:09:41;;;;;;;13.60;9.25;;;;;;;15.49;67.91;98917.66;7602761;32;37675;-78
2022/09/26 04:13:57;;;;;;;16.98;10.93;;;;;;;15.49;67.88;98912.16;7578947;32;38125;-77
2022/09/26 04:18:13;;;;;;;18.15;10.57;;;;;;;15.54;67.71;98895.50;7576943;33;39191;-78
2022/09/26 04:22:29;;;;;;;19.17;11.10;;;;;;;15.40;68.26;98895.66;7576732;33;39923;-78
2022/09/26 04:26:45;;;;;;;14.77;10.70;;;;;;;15.48;67.56;98896.81;7576663;33;37800;-78
2022/09/26 04:31:03;;;;;;;18.55;11.93;;;;;;;15.56;67.56;98895.97;7576614;33;37054;-77
2022/09/26 04:35:19;;;;;;;15.30;11.12;;;;;;;15.40;67.89;98901.16;7576564;33;40264;-77
2022/09/26 04:39:35;;;;;;;17.17;12.40;;;;;;;15.25;68.46;98890.72;7583585;32;235005;-77
2022/09/26 04:43:52;;;;;;;19.40;13.30;;;;;;;15.27;68.50;98878.25;7607269;32;37917;-77
2022/09/26 04:48:09;;;;;;;17.37;12.55;;;;;;;15.33;68.30;98870.66;7618416;32;37305;-78
2022/09/26 04:52:25;;;;;;;17.95;13.38;;;;;;;15.06;69.55;98893.78;7607331;32;39412;-78
2022/09/26 04:56:41;;;;;;;18.00;12.65;;;;;;;15.18;68.93;98893.94;7605746;32;39948;-78
2022/09/26 05:01:08;;;;;;;21.27;12.32;;;;;;;15.13;69.12;98900.41;7595325;32;38022;-78
2022/09/26 05:05:24;;;;;;;19.17;13.13;;;;;;;15.13;69.25;98889.41;7581422;32;38080;-76
2022/09/26 05:09:41;;;;;;;17.83;12.82;;;;;;;15.16;69.29;98904.41;7581209;32;40271;-77
2022/09/26 05:13:57;;;;;;;16.33;11.30;;;;;;;15.08;69.67;98892.31;7604767;32;40753;-78
2022/09/26 05:18:14;;;;;;;17.25;11.65;;;;;;;15.14;69.15;98884.72;7606257;32;38767;-77
2022/09/26 05:22:30;;;;;;;18.23;11.02;;;;;;;15.04;69.65;98913.31;7597150;32;37770;-78
2022/09/26 05:26:50;;;;;;;16.08;11.12;;;;;;;14.96;70.09;98901.19;7603349;32;40091;-78
2022/09/26 05:31:07;;;;;;;16.52;10.77;;;;;;;15.22;69.34;98900.38;7583889;32;40032;-79
2022/09/26 05:35:23;;;;;;;13.55;9.25;;;;;;;15.05;69.99;98886.69;7592362;32;38126;-79
2022/09/26 05:44:13;;;;;;;13.23;8.98;;;;;;;15.11;69.85;98904.56;7553975;33;39821;-78
2022/09/26 05:48:31;;;;;;;13.20;9.10;;;;;;;15.09;70.07;98904.09;7573885;32;39619;-80
2022/09/26 05:52:47;;;;;;;11.93;8.38;;;;;;;15.24;69.58;98911.84;7586149;32;38402;-80
2022/09/26 05:57:03;;;;;;;14.90;7.85;;;;;;;15.37;69.17;98904.59;7591405;32;37783;-80
2022/09/26 06:01:19;;;;;;;13.62;8.27;;;;;;;15.50;68.49;98867.88;7582193;32;39265;-80
2022/09/26 06:05:36;;;;;;;10.43;6.93;;;;;;;15.22;69.62;98886.66;7579991;33;39679;-80
2022/09/26 06:09:53;;;;;;;11.73;8.18;;;;;;;15.28;69.53;98885.38;7580552;33;37841;-81
2022/09/26 06:14:09;;;;;;;11.63;7.37;;;;;;;15.24;69.66;98875.34;7579534;33;37084;-80
2022/09/26 06:18:25;;;;;;;13.43;7.72;;;;;;;15.33;69.41;98893.44;7574440;33;40052;-81
2022/09/26 06:22:42;;;;;;;12.80;7.22;;;;;;;15.31;69.85;98862.72;7574478;33;39654;-80
2022/09/26 06:26:58;;;;;;;12.68;7.85;;;;;;;15.59;68.72;98873.31;7574300;33;38593;-81
2022/09/26 06:31:15;;;;;;;12.52;7.47;;;;;;;15.40;69.48;98863.53;7577760;33;36702;-80
2022/09/26 06:35:32;;;;;;;11.12;7.43;;;;;;;15.40;69.31;98882.75;7580508;33;39907;-80
2022/09/26 06:39:48;;;;;;;13.20;6.70;;;;;;;15.67;68.51;98885.44;7587990;32;39972;-80
2022/09/26 06:44:04;;;;;;;9.85;7.25;;;;;;;15.59;68.86;98900.81;7597177;32;37893;-79
2022/09/26 06:48:24;;;;;;;12.10;7.45;;;;;;;15.20;70.59;98897.16;7606229;32;37057;-79
2022/09/26 06:52:41;;;;;;;12.00;7.62;;;;;;;15.25;70.30;98897.00;7584206;32;39572;-79
2022/09/26 06:56:57;;;;;;;12.65;7.57;;;;;;;15.27;70.43;98888.44;7586827;32;40090;-79
2022/09/26 07:01:13;;;;;;;13.57;7.65;;;;;;;15.47;70.05;98886.94;7577822;32;37984;-79
2022/09/26 07:05:30;;;;;;;12.00;7.80;;;;;;;15.73;69.30;98882.19;7578717;33;37429;-79
2022/09/26 07:09:46;;;;;;;11.48;8.27;;;;;;;15.81;68.80;98879.78;7579254;33;40142;-79
2022/09/26 07:14:02;;;;;;;11.88;6.60;;;;;;;15.49;69.83;98869.00;7579226;33;40942;-78
2022/09/26 07:18:18;;;;;;;14.35;6.93;;;;;;;16.03;69.17;98875.97;7577697;33;38023;-74
2022/09/26 07:22:34;;;;;;;13.62;7.90;;;;;;;15.11;73.14;98901.84;7586592;32;37335;-72
2022/09/26 07:26:50;;;;;;;13.07;9.05;;;;;;;15.53;70.94;98896.63;7576447;33;39858;-78
2022/09/26 07:31:06;;;;;;;12.98;8.80;;;;;;;15.33;71.10;98901.69;7575415;33;38587;-79
2022/09/26 07:35:23;;;;;;;11.52;7.50;;;;;;;15.32;71.85;98902.00;7579094;33;37426;-80
2022/09/26 07:39:39;;;;;;;13.48;7.50;;;;;;;16.04;68.93;98892.12;7579160;33;37037;-79
2022/09/26 07:43:56;;;;;;;10.13;6.60;;;;;;;16.05;69.18;98891.00;7578102;32;39228;-79
2022/09/26 07:53:06;;;;;;;12.55;6.72;;;;;;;15.93;69.54;98915.62;7578445;33;37999;-79
2022/09/26 07:57:23;;;;;;;13.48;7.30;;;;;;;16.06;68.75;98919.31;7578891;33;38024;-80
2022/09/26 08:01:39;;;;;;;13.18;7.75;;;;;;;15.80;69.33;98922.94;7578392;33;40176;-80
2022/09/26 08:05:58;;;;;;;69.87;9.73;;;;;;;15.60;69.57;98929.91;7578651;33;40572;-79
2022/09/26 08:10:21;;;;;;;12.40;7.85;;;;;;;15.37;71.66;98940.28;7589325;32;37966;-79
2022/09/26 08:14:38;;;;;;;64.53;9.48;;;;;;;14.89;73.71;98933.81;7592746;32;37243;-79
2022/09/26 08:18:54;;;;;;;15.45;7.60;;;;;;;14.90;73.11;98940.09;7607727;32;40088;-79
2022/09/26 08:23:10;;;;;;;12.75;7.65;;;;;;;15.19;72.06;98936.72;7606809;32;41240;-79
2022/09/26 08:27:30;;;;;;;14.73;8.02;;;;;;;14.96;73.01;98936.88;7607233;32;38749;-78
2022/09/26 08:31:47;;;;;;;13.45;9.02;;;;;;;15.26;72.51;98926.06;7606911;32;38104;-79
2022/09/26 08:36:12;;;;;;;18.90;10.02;;;;;;;14.98;73.70;98925.59;7618375;32;40130;-79
2022/09/26 08:40:46;;;;;;;17.65;11.68;;;;;;;15.62;71.43;98913.88;7618266;32;39833;-79
2022/09/26 08:50:24;;;;;;;26.65;12.77;;;;;;;15.92;70.93;98919.53;7582616;32;37273;-80
2022/09/26 08:54:43;;;;;;;22.62;13.27;;;;;;;15.47;72.36;98925.38;7584640;32;39064;-80
2022/09/26 08:59:02;;;;;;;25.60;14.35;;;;;;;15.59;72.23;98925.53;7588264;32;40858;-79
2022/09/26 09:03:46;;;;;;;25.33;14.93;;;;;;;15.44;72.91;98928.81;7591778;32;37852;-78
2022/09/26 09:08:06;;;;;;;25.70;15.48;;;;;;;15.17;74.74;98936.25;7592060;32;37288;-77
2022/09/26 09:12:51;;;;;;;29.60;16.08;;;;;;;15.00;75.13;98943.34;7580821;33;39344;-76
2022/09/26 09:17:25;;;;;;;30.52;17.33;;;;;;;15.18;75.70;98938.66;7554103;33;40803;-77
2022/09/26 09:21:44;;;;;;;26.42;17.35;;;;;;;15.38;74.31;98939.97;7555418;33;38581;-76
2022/09/26 09:26:36;;;;;;;30.12;17.77;;;;;;;15.94;72.77;98928.22;7555008;33;37386;-77
2022/09/26 09:31:13;;;;;;;32.15;16.37;;;;;;;15.96;73.03;98939.69;7601268;32;40502;-77
2022/09/26 09:35:40;;;;;;;31.77;17.37;;;;;;;15.13;75.83;98949.81;7606704;32;40636;-77
2022/09/26 09:39:56;;;;;;;30.88;17.42;;;;;;;15.93;72.36;98945.84;7606648;32;37940;-76
2022/09/26 09:44:43;;;;;;;27.13;16.90;;;;;;;16.19;72.12;98931.22;7598253;32;37300;-77
2022/09/26 09:49:10;;;;;;;23.83;15.27;;;;;;;16.46;71.82;98928.00;7589764;32;39973;-76
2022/09/26 09:53:59;;;;;;;25.77;15.45;;;;;;;15.96;73.36;98926.75;7601526;32;38986;-76
2022/09/26 09:58:28;;;;;;;22.25;13.55;;;;;;;16.04;72.68;98916.88;7604633;32;38055;-77
2022/09/26 10:03:02;;;;;;;25.80;14.68;;;;;;;16.13;72.32;98917.66;7580775;33;37417;-75
2022/09/26 10:07:19;;;;;;;24.02;14.13;;;;;;;16.69;71.70;98913.94;7591235;32;40119;-75
2022/09/26 10:11:40;;;;;;;19.52;13.27;;;;;;;16.26;73.23;98909.50;7599192;32;40004;-77
2022/09/26 10:16:07;;;;;;;18.37;11.40;;;;;;;16.47;70.43;98913.13;7603729;32;38694;-78
2022/09/26 10:20:41;;;;;;;18.85;11.23;;;;;;;16.64;71.63;98908.63;7580605;33;37028;-77
2022/09/26 10:25:27;;;;;;;17.20;10.18;;;;;;;16.40;71.38;98901.00;7591228;32;39041;-77
2022/09/26 10:29:43;;;;;;;15.75;10.40;;;;;;;16.21;69.83;98905.00;7579738;32;39883;-76
2022/09/26 10:34:02;;;;;;;16.90;10.45;;;;;;;17.02;68.05;98905.00;7584112;32;39188;-76
2022/09/26 10:38:23;;;;;;;15.73;9.45;;;;;;;16.94;69.94;98914.16;7605190;32;37152;-76
2022/09/26 10:42:39;;;;;;;14.90;9.88;;;;;;;17.05;68.99;98909.81;7605213;32;39426;-78
2022/09/26 10:47:01;;;;;;;15.27;9.75;;;;;;;17.31;68.41;98911.56;7617061;32;40023;-78
2022/09/26 10:51:31;;;;;;;15.50;8.95;;;;;;;17.24;67.91;98898.31;7605754;32;37583;-77
2022/09/26 10:55:58;;;;;;;16.58;8.68;;;;;;;17.62;67.31;98884.31;7603677;32;38436;-76
2022/09/26 11:00:38;;;;;;;13.50;7.72;;;;;;;17.73;66.51;98875.63;7606156;32;39470;-76
2022/09/26 11:09:37;;;;;;;13.48;8.27;;;;;;;18.05;65.50;98873.16;7613045;32;37798;-76
2022/09/26 11:14:03;;;;;;;11.93;7.90;;;;;;;18.15;67.19;98870.75;7602538;32;37045;-77
2022/09/26 11:18:27;;;;;;;13.05;7.78;;;;;;;17.95;65.38;98875.22;7603011;32;39867;-77
2022/09/26 11:23:02;;;;;;;13.98;8.35;;;;;;;17.67;65.05;98872.28;7613045;32;39706;-77
2022/09/26 11:27:30;;;;;;;13.02;7.70;;;;;;;17.58;67.21;98869.62;7605527;32;38617;-77
2022/09/26 11:31:46;;;;;;;10.90;7.03;;;;;;;17.59;66.76;98874.00;7605566;32;37127;-77
2022/09/26 11:36:16;;;;;;;12.95;8.10;;;;;;;16.93;67.76;98883.03;7605701;32;39501;-76
2022/09/26 11:40:54;;;;;;;11.68;7.43;;;;;;;17.52;67.51;98878.44;7605185;32;40740;-76
2022/09/26 11:45:21;;;;;;;10.43;6.43;;;;;;;17.80;66.09;98876.69;7605389;32;37867;-76
2022/09/26 11:49:54;;;;;;;10.00;5.55;;;;;;;18.46;65.00;98872.13;7616153;32;37421;-82
2022/09/26 11:54:19;;;;;;;8.57;5.65;;;;;;;18.22;61.82;98875.69;7605205;32;39269;-71
2022/09/26 11:58:44;;;;;;;18.08;5.68;;;;;;;18.36;63.31;98873.37;7605145;32;39585;-72
2022/09/26 12:03:27;;;;;;;9.15;4.80;;;;;;;18.32;62.46;98871.69;7591679;32;37985;-73
2022/09/26 12:07:48;;;;;;;11.43;4.57;;;;;;;18.38;61.13;98873.87;7556845;33;36824;-72
2022/09/26 12:12:31;;;;;;;8.05;5.15;;;;;;;17.97;62.36;98872.94;7589765;32;39269;-72
2022/09/26 12:17:00;;;;;;;8.52;4.85;;;;;;;18.08;64.64;98867.78;7578816;33;39861;-72
2022/09/26 12:21:41;;;;;;;9.68;5.55;;;;;;;18.39;64.56;98864.41;7578374;32;38647;-73
2022/09/26 12:26:27;;;;;;;7.80;4.82;;;;;;;18.44;61.71;98870.84;7586111;32;37237;-71
2022/09/26 12:30:52;;;;;;;7.68;5.07;;;;;;;18.41;62.13;98880.63;7584660;32;39496;-73
2022/09/26 12:35:25;;;;;;;8.80;4.97;;;;;;;18.76;61.35;98869.91;7578021;33;40027;-72
2022/09/26 12:40:07;;;;;;;7.20;4.43;;;;;;;18.64;60.11;98875.41;7588418;32;37667;-72
2022/09/26 12:44:43;;;;;;;7.90;5.22;;;;;;;18.56;61.23;98870.84;7610448;32;36761;-71
2022/09/26 12:49:24;;;;;;;9.65;5.75;;;;;;;18.51;60.47;98868.31;7613385;32;39851;-71
2022/09/26 12:53:46;;;;;;;9.10;5.53;;;;;;;18.48;61.30;98869.03;7603385;32;40889;-72
2022/09/26 12:58:54;;;;;;;10.02;5.70;;;;;;;18.62;62.17;98852.88;7614409;32;38706;-71
2022/09/26 13:03:15;;;;;;;10.80;6.00;;;;;;;18.81;61.63;98852.25;7532387;32;37396;-71
2022/09/26 13:08:00;;;;;;;10.82;6.18;;;;;;;19.00;59.97;98846.12;7618209;32;40202;-71
2022/09/26 13:12:39;;;;;;;11.93;5.62;;;;;;;18.54;61.30;98835.31;7606912;32;38493;-71
2022/09/26 13:17:29;;;;;;;9.73;5.10;;;;;;;19.67;59.58;98824.25;7607098;32;39200;-72
2022/09/26 13:22:26;;;;;;;6.40;3.78;;;;;;;20.62;57.72;98828.88;7607086;32;36675;-71
2022/09/26 13:26:47;;;;;;;5.90;3.60;;;;;;;20.81;53.80;98819.00;7580409;32;39924;-72
2022/09/26 13:31:38;;;;;;;5.18;3.33;;;;;;;21.29;52.60;98810.44;7617382;32;40856;-71
2022/09/26 13:35:55;;;;;;;5.55;3.58;;;;;;;21.74;50.83;98818.00;7608493;32;38064;-72
2022/09/26 13:40:23;;;;;;;6.65;3.87;;;;;;;20.71;53.67;98825.09;7574385;32;39026;-72
2022/09/26 13:44:45;;;;;;;5.47;3.45;;;;;;;19.55;55.78;98818.00;7589184;32;39272;-71
2022/09/26 13:49:35;;;;;;;7.00;3.60;;;;;;;20.20;54.52;98812.91;7578171;33;39994;-71
2022/09/26 13:54:03;;;;;;;4.97;2.72;;;;;;;20.11;54.51;98815.06;7579365;33;38795;-72
2022/09/26 13:58:25;;;;;;;5.10;3.08;;;;;;;20.10;53.72;98823.72;7583577;32;36801;-72
2022/09/26 14:02:41;;;;;;;4.97;3.17;;;;;;;19.39;55.53;98829.84;7580984;33;37971;-71
2022/09/26 14:11:49;;;;;;;5.45;3.12;;;;;;;19.58;56.03;98809.00;7576325;33;38410;-71
2022/09/26 14:16:26;;;;;;;3.05;2.45;;;;;;;19.80;54.99;98810.34;7591984;32;36999;-70
2022/09/26 14:21:12;;;;;;;3.55;2.45;;;;;;;19.71;54.79;98802.22;7589599;32;39652;-70
2022/09/26 14:25:54;;;;;;;4.15;2.72;;;;;;;19.79;55.17;98809.56;7577901;32;40714;-70
2022/09/26 14:30:22;;;;;;;6.05;2.80;;;;;;;19.19;56.65;98808.75;7579363;33;37960;-71
2022/09/26 14:34:45;;;;;;;5.18;3.10;;;;;;;19.43;56.86;98792.03;7582737;32;38072;-72
2022/09/26 14:39:03;;;;;;;;;;;;;;;19.51;56.90;98780.00;7605898;32;39544;-71
2022/09/26 14:43:22;;;;;;;5.35;2.90;;;;;;;19.51;56.94;98776.44;7601215;32;41114;-71
2022/09/26 14:47:59;;;;;;;5.78;2.92;;;;;;;20.01;56.81;98774.13;7605461;32;37820;-71
2022/09/26 14:52:18;;;;;;;4.57;3.00;;;;;;;20.21;54.02;98773.00;7606870;32;37551;-71
2022/09/26 14:56:47;;;;;;;4.70;3.40;;;;;;;20.80;53.53;98764.78;7593237;32;40082;-71
2022/09/26 15:01:17;;;;;;;4.40;2.60;;;;;;;21.37;51.30;98751.97;7616261;32;40877;-71
2022/09/26 15:05:34;;;;;;;5.70;3.10;;;;;;;21.73;48.38;98758.16;7598687;32;37595;-71
2022/09/26 15:10:17;;;;;;;4.62;2.62;;;;;;;21.66;51.42;98758.06;7580028;33;37661;-71
2022/09/26 15:14:40;;;;;;;5.97;3.33;;;;;;;20.90;51.91;98755.06;7580215;32;39396;-71
2022/09/26 15:19:24;;;;;;;7.85;3.58;;;;;;;21.60;51.53;98744.88;7605808;32;39621;-72
2022/09/26 15:23:48;;;;;;;6.68;3.12;;;;;;;21.04;52.31;98737.91;7602491;32;37723;-71
2022/09/26 15:28:04;;;;;;;6.57;3.45;;;;;;;21.24;51.31;98742.25;7583253;32;37112;-71
2022/09/26 15:32:31;;;;;;;5.93;3.25;;;;;;;21.29;49.91;98744.69;7579597;33;40205;-72
2022/09/26 15:36:53;;;;;;;4.78;2.92;;;;;;;21.32;52.05;98723.78;7598593;32;39998;-72
2022/09/26 15:42:57;;;;;;;5.70;2.62;;;;;;;22.26;48.07;98724.03;7589941;32;38609;-72
2022/09/26 15:45:58;;;;;;;3.22;2.33;;;;;;;22.11;48.02;98723.06;7586603;32;37895;-71
2022/09/26 15:50:40;;;;;;;3.55;2.28;;;;;;;21.75;48.58;98732.81;7588369;32;39313;-74
2022/09/26 15:54:57;;;;;;;7.40;3.67;;;;;;;21.44;50.35;98734.69;7578567;32;40819;-72
2022/09/26 15:59:32;;;;;;;6.55;2.97;;;;;;;21.23;51.97;98735.13;7594464;32;37890;-73
2022/09/26 16:04:12;;;;;;;5.70;2.37;;;;;;;21.15;52.03;98738.91;7583915;32;36568;-72
2022/09/26 16:08:35;;;;;;;5.62;2.72;;;;;;;20.68;53.47;98740.00;7596333;32;39475;-73
2022/09/26 16:12:51;;;;;;;6.28;3.00;;;;;;;20.37;53.82;98742.50;7575052;33;39598;-75
2022/09/26 16:17:17;;;;;;;6.45;3.00;;;;;;;20.21;53.68;98742.56;7574854;33;37641;-75
2022/09/26 16:21:35;;;;;;;3.15;2.33;;;;;;;20.23;52.83;98743.00;7574794;33;37107;-75
2022/09/26 16:25:53;;;;;;;3.90;2.70;;;;;;;19.75;55.16;98739.53;7587395;32;37990;-75
2022/09/26 16:30:41;;;;;;;7.80;3.17;;;;;;;19.54;55.90;98739.00;7577008;33;40562;-74
2022/09/26 16:35:16;;;;;;;8.45;2.87;;;;;;;19.45;56.03;98745.50;7574796;32;37694;-74
2022/09/26 16:39:32;;;;;;;5.28;2.58;;;;;;;19.07;58.11;98746.88;7578001;33;37147;-74
2022/09/26 16:43:59;;;;;;;7.05;2.78;;;;;;;19.03;58.05;98737.72;7591546;32;40058;-74
2022/09/26 16:48:38;;;;;;;4.53;2.70;;;;;;;18.90;59.05;98741.69;7616520;32;39618;-74
2022/09/26 16:52:55;;;;;;;6.97;2.60;;;;;;;18.69;60.00;98731.62;7617767;32;37876;-74
2022/09/26 16:57:26;;;;;;;3.25;2.30;;;;;;;18.39;61.37;98725.66;7605990;32;37738;-74
2022/09/26 17:01:53;;;;;;;8.98;2.65;;;;;;;18.05;62.39;98730.56;7615929;32;39497;-73
2022/09/26 17:06:09;;;;;;;5.53;2.20;;;;;;;18.17;61.84;98732.50;7607134;32;40851;-74
2022/09/26 17:10:25;;;;;;;8.98;3.22;;;;;;;17.72;63.03;98738.97;7606590;32;39219;-74
2022/09/26 17:14:42;;;;;;;6.22;3.70;;;;;;;17.95;62.27;98742.87;7618049;32;36822;-75
2022/09/26 17:18:59;;;;;;;7.75;3.90;;;;;;;17.61;63.03;98744.94;7603914;32;39450;-74
2022/09/26 17:23:16;;;;;;;8.63;3.95;;;;;;;17.59;62.69;98740.91;7592829;32;39993;-75
2022/09/26 17:27:56;;;;;;;9.48;3.72;;;;;;;17.56;62.82;98739.66;7606502;32;38861;-73
2022/09/26 17:32:16;;;;;;;9.85;3.70;;;;;;;17.41;63.32;98741.13;7595252;32;37214;-74
2022/09/26 17:36:32;;;;;;;6.75;3.42;;;;;;;17.38;63.27;98739.03;7598282;32;40191;-74
2022/09/26 17:40:48;;;;;;;5.07;3.33;;;;;;;16.99;64.18;98741.28;7589957;32;40738;-74
2022/09/26 17:45:05;;;;;;;8.38;3.60;;;;;;;16.96;63.84;98736.47;7581994;32;37560;-72
2022/09/26 17:49:29;;;;;;;6.62;4.18;;;;;;;16.92;64.09;98745.72;7603917;32;37431;-73
2022/09/26 17:53:47;;;;;;;8.02;3.62;;;;;;;17.25;62.45;98749.25;7615103;32;40311;-72
2022/09/26 17:58:09;;;;;;;4.62;3.10;;;;;;;17.11;62.62;98747.94;7600498;32;40545;-73
2022/09/26 18:02:55;;;;;;;5.18;3.25;;;;;;;17.03;62.73;98742.22;7589196;32;37865;-72
2022/09/26 18:07:15;;;;;;;4.50;3.03;;;;;;;16.85;63.24;98752.59;7589037;32;37594;-71
2022/09/26 18:11:33;;;;;;;8.65;3.47;;;;;;;16.88;63.15;98751.94;7589528;32;39365;-72
2022/09/26 18:15:56;;;;;;;8.48;3.03;;;;;;;16.87;63.24;98744.81;7588415;32;40967;-71
2022/09/26 18:20:14;;;;;;;7.30;3.50;;;;;;;16.81;63.48;98743.37;7603550;32;37827;-71
2022/09/26 18:24:32;;;;;;;4.30;2.85;;;;;;;16.65;64.59;98739.66;7591413;32;38461;-72
2022/09/26 18:28:49;;;;;;;7.00;3.50;;;;;;;16.49;65.18;98740.28;7575745;32;40186;-71
2022/09/26 18:33:09;;;;;;;5.47;3.28;;;;;;;16.55;64.95;98729.84;7597719;32;39994;-71
2022/09/26 18:37:25;;;;;;;6.07;3.60;;;;;;;16.60;64.93;98728.84;7596469;32;38656;-72
2022/09/26 18:41:43;;;;;;;21.15;11.10;;;;;;;16.39;65.55;98740.69;7579091;32;37185;-72
2022/09/26 18:46:00;;;;;;;41.90;25.65;;;;;;;16.18;66.17;98731.59;7595240;32;38349;-71
2022/09/26 18:50:26;;;;;;;11.77;7.18;;;;;;;16.26;65.98;98730.75;7598415;32;40019;-71
2022/09/26 18:54:43;;;;;;;17.08;10.75;;;;;;;16.45;65.11;98733.84;7583179;32;37749;-72
2022/09/26 18:59:00;;;;;;;11.80;5.75;;;;;;;16.02;66.69;98742.41;7612197;32;37963;-72
2022/09/26 19:03:17;;;;;;;12.48;7.00;;;;;;;16.22;65.70;98740.81;7590201;32;40004;-71
2022/09/26 19:07:33;;;;;;;9.77;6.25;;;;;;;16.24;65.69;98744.03;7600206;32;40008;-72
2022/09/26 19:11:49;;;;;;;8.65;4.32;;;;;;;16.36;65.38;98743.28;7584091;32;37928;-73
2022/09/26 19:16:06;;;;;;;7.22;3.80;;;;;;;16.06;66.54;98746.91;7586965;32;37213;-72
2022/09/26 19:20:22;;;;;;;7.35;4.15;;;;;;;15.74;67.76;98754.66;7615506;32;39525;-73
2022/09/26 19:24:58;;;;;;;6.07;4.05;;;;;;;16.11;66.44;98745.91;7589741;32;40899;-73
2022/09/26 19:29:18;;;;;;;5.35;3.92;;;;;;;15.69;67.61;98752.09;7592404;32;38599;-73
2022/09/26 19:33:36;;;;;;;8.48;3.53;;;;;;;16.08;66.52;98752.88;7579271;32;36232;-73
2022/09/26 19:37:52;;;;;;;5.40;3.30;;;;;;;15.96;66.82;98756.34;7584785;32;39123;-73
2022/09/26 19:42:11;;;;;;;8.00;3.58;;;;;;;16.00;66.46;98761.16;7595226;32;40781;-71
2022/09/26 19:46:27;;;;;;;6.07;3.45;;;;;;;15.92;66.89;98760.91;7585754;32;37867;-72
2022/09/26 19:50:45;;;;;;;5.28;2.85;;;;;;;16.00;66.53;98756.47;7564936;32;36989;-73
2022/09/26 19:55:01;;;;;;;5.43;3.10;;;;;;;16.14;65.66;98770.78;7599152;32;37577;-73
2022/09/26 19:59:18;;;;;;;10.10;3.20;;;;;;;16.23;64.81;98764.41;7578439;32;40912;-72
2022/09/26 20:03:39;;;;;;;8.00;3.42;;;;;;;16.10;65.12;98758.03;7581422;32;37921;-74
2022/09/26 20:07:55;;;;;;;8.30;4.05;;;;;;;16.03;65.41;98758.56;7594678;32;37369;-73
2022/09/26 20:12:11;;;;;;;5.68;3.53;;;;;;;16.04;65.51;98753.84;7590162;32;40186;-75
2022/09/26 20:16:30;;;;;;;8.05;3.67;;;;;;;16.11;65.28;98746.72;7593025;32;39676;-75
2022/09/26 20:20:54;;;;;;;7.68;4.28;;;;;;;16.10;65.22;98756.09;7617982;32;37984;-74
2022/09/26 20:25:16;;;;;;;6.18;4.05;;;;;;;15.85;66.50;98757.03;7595860;32;37267;-74
2022/09/26 20:30:50;;;;;;;7.20;3.92;;;;;;;15.63;67.32;98756.19;7591578;32;39489;-74
2022/09/26 20:34:10;;;;;;;7.70;4.10;;;;;;;15.90;66.27;98765.94;7581099;33;40075;-74
2022/09/26 20:38:29;;;;;;;11.52;4.82;;;;;;;16.00;65.83;98753.72;7581110;33;38785;-73
2022/09/26 20:42:49;;;;;;;9.07;3.72;;;;;;;15.86;66.16;98761.41;7601358;32;37370;-72
2022/09/26 20:47:05;;;;;;;9.23;3.55;;;;;;;15.81;66.51;98748.66;7582695;32;39423;-73
2022/09/26 20:51:28;;;;;;;6.87;4.43;;;;;;;15.90;65.87;98745.88;7591212;32;40596;-73
2022/09/26 20:55:45;;;;;;;5.82;4.05;;;;;;;16.14;65.34;98737.81;7605837;32;37873;-72